.
WxDataArchive / Data Records for 2012-03-30
2012-03-29 March 2012 2012-03-31

Data Records for Friday, 30 March 2012

Time	Temp	Chill	HIndex	Humid	Dewpt	 Wind 	HiWind	WindDir	Rain 	Barom 
-----	----	-----	------	-----	-----	------	------	-------	-----	----- 
00:00	41.6	39.2	41.6	69	32.2	4	10	112	0.00	30.055 
00:05	41.6	39.2	41.6	69	32.2	4	10	112	0.00	30.055 
00:10	41.5	38.2	41.5	69	32.1	5	9	90	0.00	30.055 
00:15	41.5	41.5	41.5	70	32.5	3	9	68	0.00	30.045 
00:20	41.5	41.5	41.5	71	32.8	3	8	90	0.00	30.045 
00:25	41.3	38.0	41.3	71	32.6	5	11	90	0.00	30.045 
00:30	41.3	41.3	41.3	71	32.6	3	9	112	0.00	30.038 
00:35	41.2	37.9	41.2	71	32.5	5	10	112	0.00	30.038 
00:40	41.2	37.9	41.2	71	32.5	5	10	90	0.00	30.038 
00:45	41.1	38.6	41.1	71	32.4	4	9	112	0.00	30.038 
00:50	40.9	38.4	40.9	71	32.2	4	8	90	0.00	30.038 
00:55	40.9	40.9	40.9	71	32.2	3	6	112	0.00	30.038 
01:00	40.9	40.9	40.9	72	32.6	3	7	112	0.00	30.030 
01:05	40.8	40.8	40.8	72	32.5	3	5	112	0.00	30.030 
01:10	40.8	38.2	40.8	71	32.1	4	9	90	0.00	30.030 
01:15	40.6	40.6	40.6	71	31.9	3	7	90	0.00	30.029 
01:20	40.6	38.0	40.6	71	31.9	4	10	112	0.00	30.029 
01:25	40.6	38.0	40.6	71	31.9	4	10	90	0.00	30.029 
01:30	40.5	40.5	40.5	72	32.2	3	7	90	0.00	30.028 
01:35	40.5	40.5	40.5	72	32.2	3	11	112	0.00	30.028 
01:40	40.5	37.9	40.5	72	32.2	4	10	90	0.00	30.028 
01:45	40.3	37.7	40.3	71	31.7	4	9	90	0.00	30.030 
01:50	40.3	37.7	40.3	71	31.7	4	10	90	0.00	30.030 
01:55	40.3	37.7	40.3	71	31.7	4	10	90	0.00	30.030 
02:00	40.2	40.2	40.2	72	31.9	3	6	90	0.00	30.043 
02:05	40.2	40.2	40.2	72	31.9	3	10	90	0.00	30.043 
02:10	40.2	40.2	40.2	72	31.9	3	7	112	0.00	30.043 
02:15	40.2	40.2	40.2	71	31.6	3	9	90	0.00	30.043 
02:20	40.2	40.2	40.2	71	31.6	3	7	68	0.00	30.043 
02:25	40.1	37.4	40.1	71	31.5	4	6	112	0.00	30.043 
02:30	40.1	40.1	40.1	72	31.8	2	7	112	0.00	30.041 
02:35	40.1	40.1	40.1	72	31.8	3	6	90	0.00	30.041 
02:40	40.1	40.1	40.1	72	31.8	3	6	90	0.00	30.041 
02:45	40.1	40.1	40.1	72	31.8	3	7	90	0.00	30.028 
02:50	40.1	40.1	40.1	72	31.8	2	5	90	0.00	30.028 
02:55	40.1	40.1	40.1	72	31.8	2	4	90	0.00	30.028 
03:00	39.9	39.9	39.9	72	31.6	2	7	112	0.00	30.027 
03:05	39.9	39.9	39.9	72	31.6	3	7	90	0.00	30.027 
03:10	39.9	39.9	39.9	72	31.6	3	6	112	0.00	30.027 
03:15	39.9	37.2	39.9	72	31.6	4	9	112	0.00	30.013 
03:20	39.8	37.1	39.8	71	31.2	4	10	90	0.00	30.013 
03:25	39.8	37.1	39.8	72	31.5	4	11	112	0.00	30.013 
03:30	39.8	39.8	39.8	72	31.5	2	5	112	0.00	30.005 
03:35	39.6	36.9	39.6	72	31.3	4	10	90	0.00	30.005 
03:40	39.5	36.7	39.5	72	31.2	4	9	90	0.00	30.005 
03:45	39.5	36.7	39.5	72	31.2	4	9	112	0.00	29.998 
03:50	39.5	36.7	39.5	72	31.2	4	12	90	0.00	29.998 
03:55	39.5	36.7	39.5	72	31.2	4	10	90	0.00	29.998 
04:00	39.3	36.5	39.3	71	30.7	4	10	90	0.00	30.005 
04:05	39.3	36.5	39.3	72	31.0	4	9	112	0.00	30.005 
04:10	39.3	39.3	39.3	72	31.0	3	6	112	0.00	30.005 
04:15	39.3	36.5	39.3	72	31.0	4	10	90	0.00	29.989 
04:20	39.3	35.7	39.3	72	31.0	5	9	112	0.00	29.989 
04:25	39.2	39.2	39.2	73	31.3	3	6	112	0.00	29.989 
04:30	39.2	36.4	39.2	73	31.3	4	11	112	0.00	29.982 
04:35	39.2	39.2	39.2	74	31.6	3	9	90	0.00	29.982 
04:40	39.1	35.4	39.1	73	31.2	5	10	112	0.00	29.982 
04:45	39.1	36.3	39.1	73	31.2	4	11	90	0.00	29.992 
04:50	38.9	36.0	38.9	73	31.0	4	9	90	0.00	29.992 
04:55	38.9	38.9	38.9	73	31.0	3	7	90	0.00	29.992 
05:00	38.9	36.0	38.9	73	31.0	4	9	112	0.00	29.991 
05:05	38.9	38.9	38.9	73	31.0	3	6	90	0.00	29.991 
05:10	38.9	38.9	38.9	74	31.3	2	6	90	0.00	29.991 
05:15	39.1	39.1	39.1	74	31.5	2	4	90	0.00	29.995 
05:20	39.1	39.1	39.1	74	31.5	3	6	90	0.00	29.995 
05:25	38.9	38.9	38.9	74	31.3	3	9	90	0.00	29.995 
05:30	38.9	35.2	38.9	73	31.0	5	10	90	0.00	29.986 
05:35	38.8	35.9	38.8	74	31.2	4	11	112	0.00	29.986 
05:40	38.8	35.9	38.8	74	31.2	4	12	90	0.00	29.986 
05:45	38.6	34.8	38.6	75	31.4	5	9	112	0.00	29.983 
05:50	38.5	35.6	38.5	76	31.6	4	9	112	0.00	29.983 
05:55	38.5	38.5	38.5	76	31.6	3	10	90	0.00	29.983 
06:00	38.5	35.6	38.5	76	31.6	4	7	90	0.00	29.982 
06:05	38.5	38.5	38.5	76	31.6	3	5	90	0.00	29.982 
06:10	38.5	38.5	38.5	77	31.9	3	10	90	0.00	29.982 
06:15	38.5	38.5	38.5	77	31.9	3	7	112	0.00	29.977 
06:20	38.5	35.6	38.5	77	31.9	4	11	90	0.00	29.977 
06:25	38.5	38.5	38.5	77	31.9	3	7	112	0.00	29.977 
06:30	38.3	35.4	38.3	77	31.7	4	10	90	0.00	29.976 
06:35	38.3	34.5	38.3	77	31.7	5	9	90	0.00	29.976 
06:40	38.3	38.3	38.3	77	31.7	3	6	112	0.00	29.976 
06:45	38.3	38.3	38.3	77	31.7	3	8	90	0.00	29.955 
06:50	38.3	34.5	38.3	77	31.7	5	11	112	0.00	29.955 
06:55	38.2	35.2	38.2	77	31.6	4	9	90	0.00	29.955 
07:00	38.2	38.2	38.2	77	31.6	3	10	90	0.00	29.954 
07:05	38.2	34.4	38.2	77	31.6	5	10	112	0.00	29.954 
07:10	38.2	35.2	38.2	77	31.6	4	10	112	0.00	29.954 
07:15	38.2	35.2	38.2	77	31.6	4	9	112	0.00	29.950 
07:20	38.2	35.2	38.2	77	31.6	4	7	90	0.00	29.950 
07:25	38.2	35.2	38.2	77	31.6	4	9	112	0.00	29.950 
07:30	38.3	34.5	38.3	77	31.7	5	9	112	0.00	29.946 
07:35	38.3	35.4	38.3	78	32.1	4	10	90	0.00	29.946 
07:40	38.3	38.3	38.3	78	32.1	3	6	112	0.00	29.946 
07:45	38.3	38.3	38.3	81	33.0	3	6	112	0.02	29.944 
07:50	38.0	38.0	38.0	84	33.6	3	7	90	0.01	29.944 
07:55	37.6	34.5	37.6	85	33.5	4	10	90	0.00	29.944 
08:00	37.5	34.4	37.5	85	33.4	4	11	112	0.00	29.937 
08:05	37.5	37.5	37.5	86	33.7	2	6	112	0.00	29.937 
08:10	37.6	37.6	37.6	86	33.8	2	5	68	0.00	29.937 
08:15	37.8	37.8	37.8	86	34.0	3	6	90	0.00	29.927 
08:20	37.8	34.8	37.8	85	33.7	4	10	90	0.00	29.927 
08:25	37.8	34.8	37.8	85	33.7	4	12	112	0.00	29.927 
08:30	37.9	37.9	37.9	85	33.8	3	8	112	0.00	29.927 
08:35	38.0	34.1	38.0	84	33.6	5	11	112	0.00	29.927 
08:40	38.2	35.2	38.2	84	33.8	4	9	90	0.00	29.927 
08:45	38.2	38.2	38.2	84	33.8	3	9	90	0.00	29.920 
08:50	38.2	35.2	38.2	84	33.8	4	9	90	0.00	29.920 
08:55	38.3	38.3	38.3	84	33.9	3	7	112	0.00	29.920 
09:00	38.3	38.3	38.3	84	33.9	3	10	90	0.00	29.914 
09:05	38.6	38.6	38.6	84	34.2	3	7	90	0.00	29.914 
09:10	38.8	38.8	38.8	84	34.4	3	10	90	0.00	29.914 
09:15	38.8	38.8	38.8	83	34.1	3	7	90	0.00	29.897 
09:20	38.9	38.9	38.9	83	34.2	3	7	112	0.00	29.897 
09:25	39.2	36.4	39.2	83	34.5	4	9	112	0.00	29.897 
09:30	39.5	39.5	39.5	83	34.8	3	11	112	0.00	29.894 
09:35	39.8	37.1	39.8	82	34.8	4	10	90	0.00	29.894 
09:40	39.8	36.2	39.8	81	34.5	5	11	112	0.00	29.894 
09:45	39.9	36.4	39.9	81	34.6	5	11	112	0.00	29.878 
09:50	40.2	37.5	40.2	82	35.2	4	11	112	0.00	29.878 
09:55	40.8	40.8	40.8	81	35.4	3	7	112	0.00	29.878 
10:00	41.3	38.8	41.3	79	35.3	4	12	112	0.00	29.873 
10:05	41.6	38.4	41.6	79	35.6	5	11	112	0.00	29.873 
10:10	41.9	39.5	41.9	78	35.5	4	10	112	0.00	29.873 
10:15	42.3	42.3	42.3	78	35.9	3	11	90	0.00	29.871 
10:20	42.6	42.6	42.6	78	36.2	3	8	90	0.00	29.871 
10:25	43.2	43.2	43.2	77	36.5	3	11	90	0.00	29.871 
10:30	43.3	41.1	43.3	78	36.9	4	10	112	0.00	29.861 
10:35	43.5	43.5	43.5	78	37.1	3	6	112	0.00	29.861 
10:40	43.8	41.7	43.8	78	37.4	4	9	90	0.00	29.861 
10:45	44.3	44.3	44.3	78	37.9	3	6	90	0.00	29.852 
10:50	45.1	45.1	45.1	77	38.3	2	6	90	0.00	29.852 
10:55	45.7	43.9	45.7	75	38.2	4	9	112	0.00	29.852 
11:00	46.1	46.1	46.1	76	39.0	2	8	90	0.00	29.842 
11:05	46.4	46.4	46.4	75	38.9	2	5	90	0.00	29.842 
11:10	46.7	46.7	46.7	75	39.2	3	6	90	0.00	29.842 
11:15	47.1	47.1	47.1	75	39.6	2	6	90	0.00	29.828 
11:20	47.4	47.4	47.4	74	39.5	2	9	90	0.00	29.828 
11:25	47.7	47.7	47.7	74	39.8	3	7	90	0.00	29.828 
11:30	48.0	48.0	48.0	75	40.5	2	5	90	0.00	29.825 
11:35	48.8	48.8	48.8	74	40.9	3	9	135	0.00	29.825 
11:40	49.9	49.9	49.9	73	41.6	2	5	112	0.00	29.825 
11:45	50.7	50.7	50.7	71	41.6	3	10	90	0.00	29.809 
11:50	51.0	51.0	51.0	71	41.9	2	6	90	0.00	29.809 
11:55	51.4	51.4	51.4	71	42.3	2	6	112	0.00	29.809 
12:00	51.7	51.7	51.7	71	42.6	2	7	90	0.00	29.794 
12:05	52.0	52.0	52.0	70	42.5	3	6	90	0.00	29.794 
12:10	52.8	52.8	52.8	71	43.7	2	5	90	0.00	29.794 
12:15	53.9	53.9	53.9	71	44.7	2	8	90	0.00	29.779 
12:20	55.0	55.0	55.0	69	45.0	2	5	90	0.00	29.779 
12:25	55.9	55.9	55.9	67	45.1	2	6	112	0.00	29.779 
12:30	56.6	56.6	56.6	65	45.0	2	7	112	0.00	29.763 
12:35	57.2	57.2	57.2	63	44.7	2	6	135	0.00	29.763 
12:40	57.0	57.0	57.0	63	44.5	2	7	112	0.00	29.763 
12:45	57.6	57.6	57.6	64	45.5	2	6	112	0.00	29.755 
12:50	58.4	58.4	58.4	62	45.4	2	5	90	0.00	29.755 
12:55	58.9	58.9	58.9	62	45.9	3	7	112	0.00	29.755 
13:00	59.9	59.9	59.9	62	46.8	2	3	292	0.00	29.756 
13:05	60.5	60.5	60.5	60	46.5	1	4	90	0.00	29.756 
13:10	60.7	60.7	60.7	59	46.3	1	4	90	0.00	29.756 
13:15	60.2	60.2	60.2	62	47.1	2	6	90	0.00	29.750 
13:20	60.2	60.2	60.2	61	46.7	3	6	90	0.00	29.750 
13:25	60.5	60.5	60.5	62	47.4	3	7	90	0.00	29.750 
13:30	61.2	61.2	61.2	59	46.8	1	4	90	0.00	29.742 
13:35	61.6	61.6	61.6	62	48.4	2	4	112	0.00	29.742 
13:40	62.0	62.0	62.0	59	47.5	2	6	90	0.00	29.742 
13:45	61.8	61.8	61.8	61	48.2	2	5	90	0.00	29.730 
13:50	61.8	61.8	61.8	61	48.2	2	7	90	0.00	29.730 
13:55	61.8	61.8	61.8	60	47.8	3	6	90	0.00	29.730 
14:00	62.4	62.4	62.4	61	48.8	2	5	90	0.00	29.713 
14:05	62.6	62.6	62.6	60	48.5	2	6	90	0.00	29.713 
14:10	62.7	62.7	62.7	58	47.7	3	7	90	0.00	29.713 
14:15	63.1	63.1	63.1	59	48.5	3	7	90	0.00	29.688 
14:20	63.4	63.4	63.4	59	48.8	2	4	68	0.00	29.688 
14:25	63.5	63.5	63.5	59	48.9	3	7	68	0.00	29.688 
14:30	63.2	63.2	63.2	59	48.6	3	5	68	0.00	29.689 
14:35	62.9	62.9	62.9	59	48.3	1	3	68	0.00	29.689 
14:40	62.9	62.9	62.9	59	48.3	1	4	68	0.00	29.689 
14:45	62.9	62.9	62.9	60	48.8	2	4	68	0.00	29.673 
14:50	62.9	62.9	62.9	61	49.2	1	4	68	0.00	29.673 
14:55	62.9	62.9	62.9	63	50.1	0	1	90	0.01	29.673 
15:00	62.6	62.6	62.6	67	51.5	0	2	90	0.00	29.670 
15:05	62.3	62.3	62.3	68	51.6	0	2	90	0.00	29.670 
15:10	62.0	62.0	62.0	68	51.3	0	1	90	0.00	29.670 
15:15	61.6	61.6	61.6	69	51.3	0	1	90	0.00	29.665 
15:20	61.0	61.0	61.0	69	50.8	0	0	---	0.00	29.665 
15:25	60.4	60.4	60.4	71	50.9	0	0	---	0.00	29.665 
15:30	59.9	59.9	59.9	72	50.8	0	1	90	0.00	29.667 
15:35	59.6	59.6	59.6	73	50.9	0	1	90	0.00	29.667 
15:40	59.3	59.3	59.3	74	51.0	0	1	90	0.00	29.667 
15:45	59.0	59.0	59.0	74	50.7	0	1	90	0.00	29.672 
15:50	58.9	58.9	58.9	74	50.6	0	1	90	0.00	29.672 
15:55	58.6	58.6	58.6	73	50.0	0	1	90	0.00	29.672 
16:00	58.7	58.7	58.7	74	50.4	0	5	90	0.00	29.668 
16:05	58.9	58.9	58.9	73	50.3	0	3	90	0.00	29.668 
16:10	58.9	58.9	58.9	73	50.3	0	2	90	0.00	29.668 
16:15	58.7	58.7	58.7	71	49.3	0	2	90	0.00	29.672 
16:20	58.7	58.7	58.7	71	49.3	1	5	90	0.00	29.672 
16:25	58.7	58.7	58.7	71	49.3	0	2	90	0.00	29.672 
16:30	58.6	58.6	58.6	70	48.8	0	4	90	0.00	29.675 
16:35	58.4	58.4	58.4	70	48.7	1	4	292	0.00	29.675 
16:40	58.0	58.0	58.0	69	47.9	1	3	45	0.00	29.675 
16:45	57.3	57.3	57.3	68	46.8	1	5	112	0.00	29.680 
16:50	56.6	56.6	56.6	68	46.2	1	7	135	0.00	29.680 
16:55	55.7	55.7	55.7	69	45.7	1	4	0	0.00	29.680 
17:00	55.3	55.3	55.3	70	45.7	1	4	270	0.00	29.694 
17:05	55.1	55.1	55.1	69	45.1	1	4	68	0.00	29.694 
17:10	54.8	54.8	54.8	70	45.2	1	10	112	0.00	29.694 
17:15	54.4	54.4	54.4	70	44.8	1	4	90	0.00	29.695 
17:20	54.1	54.1	54.1	70	44.5	1	7	0	0.00	29.695 
17:25	53.9	53.9	53.9	71	44.7	1	4	90	0.00	29.695 
17:30	53.8	53.8	53.8	71	44.6	2	9	112	0.00	29.695 
17:35	53.6	53.6	53.6	70	44.1	1	3	90	0.00	29.695 
17:40	53.6	53.6	53.6	71	44.4	1	4	90	0.00	29.695 
17:45	53.6	53.6	53.6	72	44.8	1	4	68	0.00	29.700 
17:50	53.6	53.6	53.6	71	44.4	1	5	45	0.00	29.700 
17:55	53.5	53.5	53.5	70	44.0	0	2	22	0.00	29.700 
18:00	53.3	53.3	53.3	70	43.8	1	4	45	0.00	29.706 
18:05	53.3	53.3	53.3	71	44.1	0	3	45	0.00	29.706 
18:10	53.1	53.1	53.1	71	43.9	0	3	112	0.00	29.706 
18:15	52.5	52.5	52.5	71	43.4	1	3	22	0.00	29.721 
18:20	51.9	51.9	51.9	71	42.8	1	3	22	0.00	29.721 
18:25	51.6	51.6	51.6	72	42.9	1	5	90	0.00	29.721 
18:30	51.1	51.1	51.1	72	42.4	0	3	68	0.00	29.739 
18:35	50.5	50.5	50.5	73	42.2	0	3	68	0.00	29.739 
18:40	49.9	49.9	49.9	74	41.9	0	3	135	0.00	29.739 
18:45	49.5	49.5	49.5	75	41.9	0	2	135	0.00	29.745 
18:50	49.1	49.1	49.1	76	41.9	0	3	135	0.00	29.745 
18:55	48.8	48.8	48.8	77	41.9	0	2	45	0.00	29.745 
19:00	48.6	48.6	48.6	78	42.1	1	2	68	0.00	29.749 
19:05	48.3	48.3	48.3	78	41.8	0	3	68	0.00	29.749 
19:10	48.0	48.0	48.0	78	41.5	0	3	112	0.00	29.749 
19:15	47.7	47.7	47.7	78	41.2	1	3	112	0.00	29.766 
19:20	47.4	47.4	47.4	79	41.2	1	4	112	0.00	29.766 
19:25	47.0	47.0	47.0	78	40.5	1	4	112	0.00	29.766 
19:30	46.5	46.5	46.5	78	40.0	1	4	112	0.00	29.780 
19:35	46.2	46.2	46.2	79	40.1	0	2	112	0.00	29.780 
19:40	46.1	46.1	46.1	80	40.3	0	3	112	0.00	29.780 
19:45	45.8	45.8	45.8	81	40.3	0	1	112	0.00	29.780 
19:50	45.7	45.7	45.7	81	40.2	0	1	112	0.00	29.780 
19:55	45.2	45.2	45.2	81	39.7	0	2	112	0.00	29.780 
20:00	44.9	44.9	44.9	82	39.7	0	1	112	0.00	29.785 
20:05	44.5	44.5	44.5	82	39.4	0	3	112	0.00	29.785 
20:10	44.2	44.2	44.2	83	39.4	0	2	22	0.00	29.785 
20:15	43.9	43.9	43.9	83	39.1	0	2	22	0.00	29.787 
20:20	43.9	43.9	43.9	84	39.4	0	2	22	0.00	29.787 
20:25	43.8	43.8	43.8	84	39.3	1	4	90	0.00	29.787 
20:30	43.8	43.8	43.8	84	39.3	0	2	90	0.00	29.796 
20:35	43.8	43.8	43.8	84	39.3	0	1	90	0.00	29.796 
20:40	43.8	43.8	43.8	84	39.3	0	2	90	0.00	29.796 
20:45	43.8	43.8	43.8	84	39.3	0	2	90	0.00	29.801 
20:50	43.6	43.6	43.6	84	39.1	0	4	90	0.00	29.801 
20:55	43.6	43.6	43.6	84	39.1	1	3	90	0.00	29.801 
21:00	43.6	43.6	43.6	84	39.1	0	1	90	0.00	29.817 
21:05	43.5	43.5	43.5	84	39.0	0	2	90	0.00	29.817 
21:10	43.5	43.5	43.5	84	39.0	0	3	90	0.00	29.817 
21:15	43.3	43.3	43.3	84	38.8	0	4	90	0.00	29.819 
21:20	43.3	43.3	43.3	84	38.8	0	2	90	0.00	29.819 
21:25	43.2	43.2	43.2	84	38.7	1	3	90	0.00	29.819 
21:30	43.2	43.2	43.2	85	39.0	0	1	90	0.00	29.823 
21:35	43.1	43.1	43.1	85	38.9	0	2	90	0.00	29.823 
21:40	43.1	43.1	43.1	85	38.9	0	2	90	0.00	29.823 
21:45	43.1	43.1	43.1	85	38.9	0	1	90	0.00	29.834 
21:50	43.1	43.1	43.1	85	38.9	0	1	90	0.00	29.834 
21:55	43.1	43.1	43.1	85	38.9	0	3	90	0.00	29.834 
22:00	42.9	42.9	42.9	85	38.7	0	1	90	0.00	29.839 
22:05	42.9	42.9	42.9	85	38.7	0	1	90	0.00	29.839 
22:10	42.8	42.8	42.8	85	38.6	0	4	270	0.00	29.839 
22:15	42.6	42.6	42.6	85	38.4	0	2	22	0.00	29.836 
22:20	42.3	42.3	42.3	85	38.1	1	3	112	0.00	29.836 
22:25	42.2	42.2	42.2	85	38.0	1	4	90	0.00	29.836 
22:30	42.1	42.1	42.1	85	37.9	0	2	135	0.00	29.843 
22:35	42.1	42.1	42.1	86	38.2	0	2	112	0.00	29.843 
22:40	41.9	41.9	41.9	86	38.0	1	4	135	0.00	29.843 
22:45	41.9	41.9	41.9	86	38.0	1	3	68	0.00	29.846 
22:50	41.8	41.8	41.8	86	37.9	0	1	68	0.00	29.846 
22:55	41.8	41.8	41.8	85	37.6	0	5	45	0.00	29.846 
23:00	41.8	41.8	41.8	85	37.6	1	4	45	0.00	29.848 
23:05	41.6	41.6	41.6	85	37.4	0	2	90	0.00	29.848 
23:10	41.6	41.6	41.6	85	37.4	0	2	90	0.00	29.848 
23:15	41.6	41.6	41.6	85	37.4	1	4	90	0.00	29.851 
23:20	41.6	41.6	41.6	86	37.7	0	1	90	0.00	29.851 
23:25	41.6	41.6	41.6	86	37.7	1	4	90	0.00	29.851 
23:30	41.6	41.6	41.6	86	37.7	0	2	90	0.00	29.854 
23:35	41.6	41.6	41.6	86	37.7	0	2	90	0.00	29.854 
23:40	41.6	41.6	41.6	86	37.7	0	3	90	0.00	29.854 
23:45	41.5	41.5	41.5	86	37.6	0	2	90	0.00	29.855 
23:50	41.5	41.5	41.5	86	37.6	0	3	90	0.00	29.855 
23:55	41.5	41.5	41.5	86	37.6	0	1	90	0.00	29.855 

CoCoRaHS
IN-AL-39
A2 Web Hosting
Creative Commons License
GoDaddy
search engine by freefind advanced

loaded 2018-11-19 19:14:37 • last modified 2010-11-18 10:43:29
Privacy PolicyDisclaimer
• wx.awcolley.com is powered by PmWiki v.2002016 •
• all content (unless otherwise noted) © 2018 A W Colley